sensor_id;sensor_type;location;lat;lon;timestamp;pressure;altitude;pressure_sealevel;temperature;humidity
45285;BME280;31026;43.780;25.948;2024-02-26T00:00:46;100473.91;;;18.69;62.25
45285;BME280;31026;43.780;25.948;2024-02-26T00:03:17;100478.28;;;18.71;62.25
45285;BME280;31026;43.780;25.948;2024-02-26T00:05:45;100478.28;;;18.71;62.28
45285;BME280;31026;43.780;25.948;2024-02-26T00:08:14;100463.63;;;18.75;62.18
45285;BME280;31026;43.780;25.948;2024-02-26T00:10:42;100464.31;;;18.67;62.46
45285;BME280;31026;43.780;25.948;2024-02-26T00:13:10;100458.81;;;18.59;62.51
45285;BME280;31026;43.780;25.948;2024-02-26T00:15:39;100481.53;;;18.64;62.44
45285;BME280;31026;43.780;25.948;2024-02-26T00:18:07;100456.56;;;18.64;62.34
45285;BME280;31026;43.780;25.948;2024-02-26T00:20:38;100464.19;;;18.68;62.31
45285;BME280;31026;43.780;25.948;2024-02-26T00:23:08;100463.88;;;18.72;62.27
45285;BME280;31026;43.780;25.948;2024-02-26T00:25:36;100446.97;;;18.61;62.35
45285;BME280;31026;43.780;25.948;2024-02-26T00:28:05;100464.59;;;18.64;62.24
45285;BME280;31026;43.780;25.948;2024-02-26T00:30:34;100451.78;;;18.67;62.15
45285;BME280;31026;43.780;25.948;2024-02-26T00:33:02;100471.38;;;18.58;62.18
45285;BME280;31026;43.780;25.948;2024-02-26T00:35:30;100461.19;;;18.52;62.63
45285;BME280;31026;43.780;25.948;2024-02-26T00:38:01;100457.69;;;18.52;62.37
45285;BME280;31026;43.780;25.948;2024-02-26T00:40:29;100452.63;;;18.58;62.45
45285;BME280;31026;43.780;25.948;2024-02-26T00:42:58;100429.78;;;18.54;62.27
45285;BME280;31026;43.780;25.948;2024-02-26T00:45:27;100450.66;;;18.51;62.44
45285;BME280;31026;43.780;25.948;2024-02-26T00:47:57;100441.34;;;18.55;62.49
45285;BME280;31026;43.780;25.948;2024-02-26T00:50:29;100443.47;;;18.51;62.65
45285;BME280;31026;43.780;25.948;2024-02-26T00:53:01;100431.22;;;18.58;62.37
45285;BME280;31026;43.780;25.948;2024-02-26T00:55:29;100435.88;;;18.56;62.39
45285;BME280;31026;43.780;25.948;2024-02-26T00:57:58;100433.59;;;18.61;62.36
45285;BME280;31026;43.780;25.948;2024-02-26T01:00:26;100427.53;;;18.59;62.26
45285;BME280;31026;43.780;25.948;2024-02-26T01:02:54;100437.28;;;18.60;62.29
45285;BME280;31026;43.780;25.948;2024-02-26T01:05:24;100435.28;;;18.62;62.13
45285;BME280;31026;43.780;25.948;2024-02-26T01:07:53;100424.16;;;18.57;61.90
45285;BME280;31026;43.780;25.948;2024-02-26T01:10:23;100422.47;;;18.56;62.23
45285;BME280;31026;43.780;25.948;2024-02-26T01:12:52;100411.47;;;18.59;61.95
45285;BME280;31026;43.780;25.948;2024-02-26T01:15:20;100420.19;;;18.61;62.07
45285;BME280;31026;43.780;25.948;2024-02-26T01:17:49;100420.50;;;18.58;62.25
45285;BME280;31026;43.780;25.948;2024-02-26T01:20:17;100416.81;;;18.59;62.33
45285;BME280;31026;43.780;25.948;2024-02-26T01:22:45;100421.31;;;18.39;63.04
45285;BME280;31026;43.780;25.948;2024-02-26T01:25:14;100412.88;;;18.44;62.92
45285;BME280;31026;43.780;25.948;2024-02-26T01:27:46;100410.31;;;18.52;62.85
45285;BME280;31026;43.780;25.948;2024-02-26T01:30:14;100421.91;;;18.53;62.75
45285;BME280;31026;43.780;25.948;2024-02-26T01:32:43;100422.75;;;18.53;62.73
45285;BME280;31026;43.780;25.948;2024-02-26T01:35:11;100415.41;;;18.45;63.03
45285;BME280;31026;43.780;25.948;2024-02-26T01:37:39;100404.69;;;18.36;63.08
45285;BME280;31026;43.780;25.948;2024-02-26T01:40:08;100424.56;;;18.43;63.32
45285;BME280;31026;43.780;25.948;2024-02-26T01:42:38;100418.06;;;18.36;63.57
45285;BME280;31026;43.780;25.948;2024-02-26T01:45:09;100423.31;;;18.47;63.17
45285;BME280;31026;43.780;25.948;2024-02-26T01:47:40;100416.13;;;18.57;62.91
45285;BME280;31026;43.780;25.948;2024-02-26T01:50:09;100413.56;;;18.56;62.84
45285;BME280;31026;43.780;25.948;2024-02-26T01:52:37;100416.53;;;18.43;63.38
45285;BME280;31026;43.780;25.948;2024-02-26T01:55:06;100387.94;;;18.43;63.32
45285;BME280;31026;43.780;25.948;2024-02-26T01:57:35;100445.28;;;18.41;63.29
45285;BME280;31026;43.780;25.948;2024-02-26T02:00:04;100410.06;;;18.55;63.11
45285;BME280;31026;43.780;25.948;2024-02-26T02:02:35;100409.78;;;18.58;62.81
45285;BME280;31026;43.780;25.948;2024-02-26T02:05:05;100394.25;;;18.52;62.91
45285;BME280;31026;43.780;25.948;2024-02-26T02:07:34;100405.84;;;18.43;63.31
45285;BME280;31026;43.780;25.948;2024-02-26T02:10:04;100392.31;;;18.35;63.30
45285;BME280;31026;43.780;25.948;2024-02-26T02:12:33;100408.34;;;18.74;62.65
45285;BME280;31026;43.780;25.948;2024-02-26T02:15:04;100399.81;;;19.27;61.13
45285;BME280;31026;43.780;25.948;2024-02-26T02:17:32;100404.75;;;19.59;60.21
45285;BME280;31026;43.780;25.948;2024-02-26T02:20:04;100402.13;;;19.50;60.53
45285;BME280;31026;43.780;25.948;2024-02-26T02:22:38;100399.34;;;19.69;60.15
45285;BME280;31026;43.780;25.948;2024-02-26T02:25:07;100403.94;;;19.86;59.72
45285;BME280;31026;43.780;25.948;2024-02-26T02:27:35;100396.88;;;19.85;59.74
45285;BME280;31026;43.780;25.948;2024-02-26T02:30:04;100406.88;;;19.93;59.60
45285;BME280;31026;43.780;25.948;2024-02-26T02:32:33;100393.03;;;19.98;59.55
45285;BME280;31026;43.780;25.948;2024-02-26T02:35:02;100404.28;;;20.01;59.38
45285;BME280;31026;43.780;25.948;2024-02-26T02:37:30;100403.16;;;20.04;59.33
45285;BME280;31026;43.780;25.948;2024-02-26T02:40:01;100395.09;;;20.04;59.39
45285;BME280;31026;43.780;25.948;2024-02-26T02:42:31;100408.13;;;19.99;59.55
45285;BME280;31026;43.780;25.948;2024-02-26T02:45:00;100406.22;;;20.09;59.12
45285;BME280;31026;43.780;25.948;2024-02-26T02:47:28;100389.31;;;19.99;59.46
45285;BME280;31026;43.780;25.948;2024-02-26T02:49:56;100402.81;;;20.07;59.25
45285;BME280;31026;43.780;25.948;2024-02-26T02:52:24;100400.22;;;20.15;59.20
45285;BME280;31026;43.780;25.948;2024-02-26T02:54:53;100424.09;;;20.18;59.21
45285;BME280;31026;43.780;25.948;2024-02-26T02:57:24;100411.38;;;20.20;59.15
45285;BME280;31026;43.780;25.948;2024-02-26T02:59:52;100412.91;;;20.23;59.07
45285;BME280;31026;43.780;25.948;2024-02-26T03:02:20;100415.75;;;20.21;58.98
45285;BME280;31026;43.780;25.948;2024-02-26T03:04:50;100420.94;;;20.23;58.97
45285;BME280;31026;43.780;25.948;2024-02-26T03:07:18;100422.66;;;20.24;58.87
45285;BME280;31026;43.780;25.948;2024-02-26T03:09:46;100421.50;;;20.26;58.99
45285;BME280;31026;43.780;25.948;2024-02-26T03:12:15;100428.41;;;20.29;58.93
45285;BME280;31026;43.780;25.948;2024-02-26T03:14:46;100425.28;;;20.34;58.65
45285;BME280;31026;43.780;25.948;2024-02-26T03:17:14;100426.56;;;20.30;58.56
45285;BME280;31026;43.780;25.948;2024-02-26T03:19:43;100423.03;;;20.29;58.64
45285;BME280;31026;43.780;25.948;2024-02-26T03:22:12;100419.66;;;20.27;58.77
45285;BME280;31026;43.780;25.948;2024-02-26T03:24:40;100422.59;;;20.34;58.60
45285;BME280;31026;43.780;25.948;2024-02-26T03:27:08;100426.94;;;20.35;58.74
45285;BME280;31026;43.780;25.948;2024-02-26T03:29:37;100429.47;;;20.36;58.74
45285;BME280;31026;43.780;25.948;2024-02-26T03:32:08;100431.47;;;20.34;58.63
45285;BME280;31026;43.780;25.948;2024-02-26T03:34:36;100433.69;;;20.39;58.81
45285;BME280;31026;43.780;25.948;2024-02-26T03:37:06;100419.28;;;20.40;58.54
45285;BME280;31026;43.780;25.948;2024-02-26T03:39:36;100421.81;;;20.41;58.66
45285;BME280;31026;43.780;25.948;2024-02-26T03:42:04;100415.28;;;20.44;58.40
45285;BME280;31026;43.780;25.948;2024-02-26T03:44:32;100420.66;;;20.44;58.54
45285;BME280;31026;43.780;25.948;2024-02-26T03:47:01;100425.72;;;20.47;58.52
45285;BME280;31026;43.780;25.948;2024-02-26T03:49:32;100416.97;;;20.45;58.44
45285;BME280;31026;43.780;25.948;2024-02-26T03:52:00;100416.13;;;20.44;58.42
45285;BME280;31026;43.780;25.948;2024-02-26T03:54:30;100421.72;;;20.51;58.29
45285;BME280;31026;43.780;25.948;2024-02-26T03:56:58;100434.56;;;20.57;58.42
45285;BME280;31026;43.780;25.948;2024-02-26T03:59:27;100428.66;;;20.54;58.23
45285;BME280;31026;43.780;25.948;2024-02-26T04:01:55;100426.91;;;19.99;59.41
45285;BME280;31026;43.780;25.948;2024-02-26T04:04:23;100433.75;;;19.83;59.85
45285;BME280;31026;43.780;25.948;2024-02-26T04:06:54;100421.97;;;19.66;59.97
45285;BME280;31026;43.780;25.948;2024-02-26T04:09:23;100430.75;;;19.59;60.37
45285;BME280;31026;43.780;25.948;2024-02-26T04:11:51;100425.88;;;19.44;60.65
45285;BME280;31026;43.780;25.948;2024-02-26T04:14:19;100435.06;;;19.42;60.48
45285;BME280;31026;43.780;25.948;2024-02-26T04:16:48;100424.63;;;19.29;60.57
45285;BME280;31026;43.780;25.948;2024-02-26T04:19:19;100425.47;;;19.30;60.77
45285;BME280;31026;43.780;25.948;2024-02-26T04:21:47;100432.13;;;19.25;60.65
45285;BME280;31026;43.780;25.948;2024-02-26T04:24:18;100445.81;;;19.22;60.80
45285;BME280;31026;43.780;25.948;2024-02-26T04:26:47;100438.50;;;19.15;60.78
45285;BME280;31026;43.780;25.948;2024-02-26T04:31:46;100442.75;;;19.07;61.47
45285;BME280;31026;43.780;25.948;2024-02-26T04:34:14;100451.59;;;19.18;61.47
45285;BME280;31026;43.780;25.948;2024-02-26T04:36:43;100444.09;;;19.31;61.24
45285;BME280;31026;43.780;25.948;2024-02-26T04:39:13;100438.34;;;19.26;61.06
45285;BME280;31026;43.780;25.948;2024-02-26T04:41:44;100451.06;;;19.24;60.99
45285;BME280;31026;43.780;25.948;2024-02-26T04:44:13;100427.19;;;19.21;61.06
45285;BME280;31026;43.780;25.948;2024-02-26T04:46:42;100434.81;;;19.16;60.87
45285;BME280;31026;43.780;25.948;2024-02-26T04:49:10;100432.19;;;19.06;61.17
45285;BME280;31026;43.780;25.948;2024-02-26T04:51:38;100441.34;;;19.03;61.10
45285;BME280;31026;43.780;25.948;2024-02-26T04:54:07;100435.16;;;18.93;61.54
45285;BME280;31026;43.780;25.948;2024-02-26T04:56:35;100441.63;;;19.00;61.48
45285;BME280;31026;43.780;25.948;2024-02-26T04:59:09;100453.47;;;19.07;61.45
45285;BME280;31026;43.780;25.948;2024-02-26T05:01:37;100457.38;;;19.23;61.37
45285;BME280;31026;43.780;25.948;2024-02-26T05:04:12;100439.47;;;19.14;61.59
45285;BME280;31026;43.780;25.948;2024-02-26T05:06:41;100459.94;;;19.15;61.26
45285;BME280;31026;43.780;25.948;2024-02-26T05:09:09;100463.91;;;19.11;61.30
45285;BME280;31026;43.780;25.948;2024-02-26T05:11:37;100459.69;;;19.08;61.21
45285;BME280;31026;43.780;25.948;2024-02-26T05:14:06;100456.31;;;18.96;61.19
45285;BME280;31026;43.780;25.948;2024-02-26T05:16:37;100469.28;;;18.91;61.36
45285;BME280;31026;43.780;25.948;2024-02-26T05:19:05;100460.78;;;19.05;61.66
45285;BME280;31026;43.780;25.948;2024-02-26T05:21:33;100491.41;;;19.13;61.85
45285;BME280;31026;43.780;25.948;2024-02-26T05:24:02;100472.03;;;19.38;61.18
45285;BME280;31026;43.780;25.948;2024-02-26T05:26:30;100465.84;;;19.65;60.38
45285;BME280;31026;43.780;25.948;2024-02-26T05:28:59;100461.88;;;19.79;60.35
45285;BME280;31026;43.780;25.948;2024-02-26T05:31:27;100474.25;;;19.53;59.84
45285;BME280;31026;43.780;25.948;2024-02-26T05:33:58;100473.94;;;19.08;60.66
45285;BME280;31026;43.780;25.948;2024-02-26T05:36:26;100473.09;;;18.98;58.06
45285;BME280;31026;43.780;25.948;2024-02-26T05:38:58;100478.28;;;19.00;59.88
45285;BME280;31026;43.780;25.948;2024-02-26T05:41:26;100480.13;;;18.90;60.15
45285;BME280;31026;43.780;25.948;2024-02-26T05:43:55;100492.44;;;18.92;60.70
45285;BME280;31026;43.780;25.948;2024-02-26T05:46:24;100491.28;;;18.95;61.05
45285;BME280;31026;43.780;25.948;2024-02-26T05:48:52;100493.38;;;19.11;60.86
45285;BME280;31026;43.780;25.948;2024-02-26T05:51:23;100493.25;;;19.22;60.42
45285;BME280;31026;43.780;25.948;2024-02-26T05:53:52;100482.75;;;19.38;60.20
45285;BME280;31026;43.780;25.948;2024-02-26T05:56:22;100492.75;;;19.46;59.63
45285;BME280;31026;43.780;25.948;2024-02-26T05:58:50;100499.09;;;19.45;60.03
45285;BME280;31026;43.780;25.948;2024-02-26T06:01:19;100518.56;;;19.47;59.75
45285;BME280;31026;43.780;25.948;2024-02-26T06:03:49;100505.88;;;19.49;59.92
45285;BME280;31026;43.780;25.948;2024-02-26T06:06:17;100503.63;;;19.44;59.91
45285;BME280;31026;43.780;25.948;2024-02-26T06:08:50;100519.59;;;19.46;59.99
45285;BME280;31026;43.780;25.948;2024-02-26T06:11:19;100523.66;;;19.50;59.77
45285;BME280;31026;43.780;25.948;2024-02-26T06:13:48;100506.69;;;19.50;59.74
45285;BME280;31026;43.780;25.948;2024-02-26T06:16:16;100541.44;;;19.51;59.87
45285;BME280;31026;43.780;25.948;2024-02-26T06:18:44;100522.78;;;19.50;59.79
45285;BME280;31026;43.780;25.948;2024-02-26T06:21:12;100532.66;;;19.59;59.54
45285;BME280;31026;43.780;25.948;2024-02-26T06:23:41;100534.38;;;19.60;59.66
45285;BME280;31026;43.780;25.948;2024-02-26T06:26:12;100523.66;;;19.60;59.45
45285;BME280;31026;43.780;25.948;2024-02-26T06:28:40;100536.34;;;19.58;59.57
45285;BME280;31026;43.780;25.948;2024-02-26T06:31:08;100541.72;;;19.58;59.51
45285;BME280;31026;43.780;25.948;2024-02-26T06:33:37;100527.59;;;19.56;59.67
45285;BME280;31026;43.780;25.948;2024-02-26T06:36:05;100533.22;;;19.62;59.55
45285;BME280;31026;43.780;25.948;2024-02-26T06:38:34;100538.88;;;19.59;59.64
45285;BME280;31026;43.780;25.948;2024-02-26T06:41:02;100539.44;;;19.63;59.55
45285;BME280;31026;43.780;25.948;2024-02-26T06:43:34;100536.03;;;19.61;59.49
45285;BME280;31026;43.780;25.948;2024-02-26T06:46:02;100535.47;;;19.67;59.43
45285;BME280;31026;43.780;25.948;2024-02-26T06:48:31;100540.97;;;19.65;59.39
45285;BME280;31026;43.780;25.948;2024-02-26T06:50:59;100557.47;;;19.71;59.28
45285;BME280;31026;43.780;25.948;2024-02-26T06:53:27;100544.22;;;19.69;59.14
45285;BME280;31026;43.780;25.948;2024-02-26T06:55:56;100563.72;;;19.71;59.25
45285;BME280;31026;43.780;25.948;2024-02-26T06:58:24;100543.50;;;19.67;59.25
45285;BME280;31026;43.780;25.948;2024-02-26T07:00:55;100557.94;;;19.66;59.33
45285;BME280;31026;43.780;25.948;2024-02-26T07:03:23;100550.06;;;19.35;60.01
45285;BME280;31026;43.780;25.948;2024-02-26T07:05:52;100551.34;;;19.31;60.02
45285;BME280;31026;43.780;25.948;2024-02-26T07:08:20;100549.53;;;19.22;60.27
45285;BME280;31026;43.780;25.948;2024-02-26T07:10:48;100560.25;;;19.12;60.46
45285;BME280;31026;43.780;25.948;2024-02-26T07:13:17;100557.28;;;19.05;60.72
45285;BME280;31026;43.780;25.948;2024-02-26T07:15:46;100564.63;;;19.03;60.44
45285;BME280;31026;43.780;25.948;2024-02-26T07:18:17;100549.97;;;18.88;60.89
45285;BME280;31026;43.780;25.948;2024-02-26T07:20:45;100561.22;;;19.31;59.38
45285;BME280;31026;43.780;25.948;2024-02-26T07:23:13;100532.81;;;19.47;58.59
45285;BME280;31026;43.780;25.948;2024-02-26T07:25:42;100556.09;;;19.76;58.16
45285;BME280;31026;43.780;25.948;2024-02-26T07:28:12;100534.91;;;19.73;58.31
45285;BME280;31026;43.780;25.948;2024-02-26T07:30:40;100445.47;;;18.88;58.85
45285;BME280;31026;43.780;25.948;2024-02-26T07:33:08;100550.50;;;19.31;59.59
45285;BME280;31026;43.780;25.948;2024-02-26T07:35:39;100545.16;;;19.11;59.82
45285;BME280;31026;43.780;25.948;2024-02-26T07:38:08;100547.13;;;18.99;60.28
45285;BME280;31026;43.780;25.948;2024-02-26T07:40:38;100551.63;;;18.89;57.51
45285;BME280;31026;43.780;25.948;2024-02-26T07:43:06;100542.63;;;18.90;58.13
45285;BME280;31026;43.780;25.948;2024-02-26T07:45:34;100547.81;;;18.92;58.82
45285;BME280;31026;43.780;25.948;2024-02-26T07:48:03;100547.00;;;19.11;58.60
45285;BME280;31026;43.780;25.948;2024-02-26T07:50:32;100538.06;;;19.30;58.32
45285;BME280;31026;43.780;25.948;2024-02-26T07:53:03;100559.13;;;19.34;58.22
45285;BME280;31026;43.780;25.948;2024-02-26T07:55:31;100545.84;;;19.23;58.51
45285;BME280;31026;43.780;25.948;2024-02-26T07:57:59;100544.03;;;19.04;58.69
45285;BME280;31026;43.780;25.948;2024-02-26T08:00:28;100550.25;;;19.04;58.87
45285;BME280;31026;43.780;25.948;2024-02-26T08:02:56;100537.81;;;19.03;58.84
45285;BME280;31026;43.780;25.948;2024-02-26T08:05:24;100526.13;;;19.04;59.03
45285;BME280;31026;43.780;25.948;2024-02-26T08:07:53;100525.53;;;18.91;59.42
45285;BME280;31026;43.780;25.948;2024-02-26T08:10:24;100541.50;;;19.02;59.22
45285;BME280;31026;43.780;25.948;2024-02-26T08:12:52;100531.75;;;19.21;58.96
45285;BME280;31026;43.780;25.948;2024-02-26T08:15:22;100538.06;;;19.39;58.45
45285;BME280;31026;43.780;25.948;2024-02-26T08:17:50;100538.63;;;19.33;58.54
45285;BME280;31026;43.780;25.948;2024-02-26T08:20:19;100537.53;;;19.26;58.66
45285;BME280;31026;43.780;25.948;2024-02-26T08:22:47;100533.84;;;19.17;58.97
45285;BME280;31026;43.780;25.948;2024-02-26T08:25:16;100539.22;;;19.07;59.24
45285;BME280;31026;43.780;25.948;2024-02-26T08:27:47;100528.78;;;18.95;59.60
45285;BME280;31026;43.780;25.948;2024-02-26T08:30:16;100525.97;;;18.86;59.89
45285;BME280;31026;43.780;25.948;2024-02-26T08:32:44;100546.97;;;18.91;59.84
45285;BME280;31026;43.780;25.948;2024-02-26T08:35:13;100522.44;;;19.05;59.71
45285;BME280;31026;43.780;25.948;2024-02-26T08:37:43;100526.78;;;19.36;59.13
45285;BME280;31026;43.780;25.948;2024-02-26T08:40:12;100531.97;;;19.47;58.68
45285;BME280;31026;43.780;25.948;2024-02-26T08:42:41;100527.91;;;19.43;58.95
45285;BME280;31026;43.780;25.948;2024-02-26T08:45:12;100533.41;;;19.32;59.11
45285;BME280;31026;43.780;25.948;2024-02-26T08:47:40;100540.34;;;19.15;58.71
45285;BME280;31026;43.780;25.948;2024-02-26T08:50:08;100538.25;;;19.08;59.15
45285;BME280;31026;43.780;25.948;2024-02-26T08:52:37;100530.22;;;19.08;59.12
45285;BME280;31026;43.780;25.948;2024-02-26T08:55:06;100526.25;;;19.13;59.25
45285;BME280;31026;43.780;25.948;2024-02-26T08:57:34;100537.38;;;19.18;59.48
45285;BME280;31026;43.780;25.948;2024-02-26T09:00:04;100516.66;;;19.10;59.64
45285;BME280;31026;43.780;25.948;2024-02-26T09:02:35;100535.13;;;19.23;59.53
45285;BME280;31026;43.780;25.948;2024-02-26T09:05:04;100546.50;;;19.64;58.51
45285;BME280;31026;43.780;25.948;2024-02-26T09:07:32;100535.56;;;19.85;57.87
45285;BME280;31026;43.780;25.948;2024-02-26T09:10:01;100527.28;;;19.68;58.38
45285;BME280;31026;43.780;25.948;2024-02-26T09:12:29;100523.91;;;19.57;58.65
45285;BME280;31026;43.780;25.948;2024-02-26T09:14:58;100532.13;;;19.45;58.99
45285;BME280;31026;43.780;25.948;2024-02-26T09:17:26;100536.09;;;19.32;59.30
45285;BME280;31026;43.780;25.948;2024-02-26T09:19:57;100513.69;;;19.23;59.38
45285;BME280;31026;43.780;25.948;2024-02-26T09:22:25;100530.78;;;19.22;59.51
45285;BME280;31026;43.780;25.948;2024-02-26T09:24:54;100527.34;;;19.20;59.53
45285;BME280;31026;43.780;25.948;2024-02-26T09:27:22;100531.63;;;19.13;59.65
45285;BME280;31026;43.780;25.948;2024-02-26T09:29:50;100525.41;;;19.12;59.63
45285;BME280;31026;43.780;25.948;2024-02-26T09:32:19;100519.19;;;19.12;59.62
45285;BME280;31026;43.780;25.948;2024-02-26T09:34:47;100528.09;;;19.22;59.87
45285;BME280;31026;43.780;25.948;2024-02-26T09:37:18;100520.06;;;19.69;58.23
45285;BME280;31026;43.780;25.948;2024-02-26T09:39:46;100528.19;;;19.97;57.58
45285;BME280;31026;43.780;25.948;2024-02-26T09:42:15;100507.34;;;19.81;57.71
45285;BME280;31026;43.780;25.948;2024-02-26T09:44:46;100512.31;;;19.66;58.12
45285;BME280;31026;43.780;25.948;2024-02-26T09:47:17;100513.19;;;19.57;58.66
45285;BME280;31026;43.780;25.948;2024-02-26T09:49:46;100500.38;;;19.51;58.94
45285;BME280;31026;43.780;25.948;2024-02-26T09:52:18;100526.75;;;19.45;58.93
45285;BME280;31026;43.780;25.948;2024-02-26T09:54:47;100510.13;;;19.42;59.02
45285;BME280;31026;43.780;25.948;2024-02-26T09:57:16;100518.59;;;19.37;59.06
45285;BME280;31026;43.780;25.948;2024-02-26T09:59:44;100506.06;;;19.38;58.26
45285;BME280;31026;43.780;25.948;2024-02-26T10:02:16;100494.91;;;19.33;58.40
45285;BME280;31026;43.780;25.948;2024-02-26T10:04:45;100506.47;;;19.33;58.65
45285;BME280;31026;43.780;25.948;2024-02-26T10:07:18;100489.59;;;19.70;57.36
45285;BME280;31026;43.780;25.948;2024-02-26T10:09:46;100480.06;;;20.13;56.00
45285;BME280;31026;43.780;25.948;2024-02-26T10:12:15;100483.97;;;20.01;55.77
45285;BME280;31026;43.780;25.948;2024-02-26T10:14:44;100491.38;;;19.79;54.58
45285;BME280;31026;43.780;25.948;2024-02-26T10:17:12;100497.34;;;19.63;55.33
45285;BME280;31026;43.780;25.948;2024-02-26T10:19:40;100499.94;;;19.45;56.93
45285;BME280;31026;43.780;25.948;2024-02-26T10:22:09;100478.78;;;19.42;56.94
45285;BME280;31026;43.780;25.948;2024-02-26T10:24:40;100491.16;;;19.73;56.67
45285;BME280;31026;43.780;25.948;2024-02-26T10:27:08;100475.28;;;20.35;54.99
45285;BME280;31026;43.780;25.948;2024-02-26T10:29:37;100472.09;;;20.67;54.38
45285;BME280;31026;43.780;25.948;2024-02-26T10:32:07;100458.66;;;21.03;53.47
45285;BME280;31026;43.780;25.948;2024-02-26T10:34:36;100460.53;;;21.11;53.32
45285;BME280;31026;43.780;25.948;2024-02-26T10:37:06;100454.59;;;20.81;54.05
45285;BME280;31026;43.780;25.948;2024-02-26T10:39:36;100468.19;;;20.43;55.17
45285;BME280;31026;43.780;25.948;2024-02-26T10:42:07;100449.19;;;20.45;55.62
45285;BME280;31026;43.780;25.948;2024-02-26T10:44:40;100443.16;;;20.79;54.91
45285;BME280;31026;43.780;25.948;2024-02-26T10:47:10;100467.72;;;21.02;54.34
45285;BME280;31026;43.780;25.948;2024-02-26T10:49:38;100459.41;;;21.13;54.12
45285;BME280;31026;43.780;25.948;2024-02-26T10:52:13;100447.91;;;21.29;53.26
45285;BME280;31026;43.780;25.948;2024-02-26T10:54:42;100453.09;;;21.04;54.35
45285;BME280;31026;43.780;25.948;2024-02-26T10:57:15;100455.03;;;20.58;55.57
45285;BME280;31026;43.780;25.948;2024-02-26T10:59:43;100444.72;;;20.63;55.10
45285;BME280;31026;43.780;25.948;2024-02-26T11:02:12;100467.81;;;20.92;54.52
45285;BME280;31026;43.780;25.948;2024-02-26T11:04:41;100453.28;;;21.29;53.73
45285;BME280;31026;43.780;25.948;2024-02-26T11:07:10;100445.88;;;21.49;53.39
45285;BME280;31026;43.780;25.948;2024-02-26T11:09:39;100441.81;;;21.45;53.57
45285;BME280;31026;43.780;25.948;2024-02-26T11:12:11;100463.78;;;21.40;53.51
45285;BME280;31026;43.780;25.948;2024-02-26T11:14:43;100451.81;;;21.35;53.72
45285;BME280;31026;43.780;25.948;2024-02-26T11:17:12;100446.59;;;21.33;53.70
45285;BME280;31026;43.780;25.948;2024-02-26T11:19:41;100445.53;;;21.26;53.88
45285;BME280;31026;43.780;25.948;2024-02-26T11:22:11;100439.81;;;21.21;53.87
45285;BME280;31026;43.780;25.948;2024-02-26T11:24:39;100438.84;;;21.30;53.59
45285;BME280;31026;43.780;25.948;2024-02-26T11:27:09;100432.28;;;21.33;53.78
45285;BME280;31026;43.780;25.948;2024-02-26T11:29:38;100452.59;;;21.45;53.52
45285;BME280;31026;43.780;25.948;2024-02-26T11:32:10;100442.75;;;21.36;53.98
45285;BME280;31026;43.780;25.948;2024-02-26T11:37:16;100432.25;;;21.24;54.04
45285;BME280;31026;43.780;25.948;2024-02-26T11:39:45;100439.28;;;21.17;54.20
45285;BME280;31026;43.780;25.948;2024-02-26T11:42:14;100432.91;;;21.26;54.11
45285;BME280;31026;43.780;25.948;2024-02-26T11:44:43;100436.63;;;21.25;54.14
45285;BME280;31026;43.780;25.948;2024-02-26T11:47:18;100437.78;;;21.23;54.28
45285;BME280;31026;43.780;25.948;2024-02-26T11:49:47;100431.78;;;21.29;54.10
45285;BME280;31026;43.780;25.948;2024-02-26T11:52:16;100419.03;;;21.31;54.05
45285;BME280;31026;43.780;25.948;2024-02-26T11:54:44;100425.84;;;21.43;53.73
45285;BME280;31026;43.780;25.948;2024-02-26T11:57:20;100422.81;;;21.47;53.85
45285;BME280;31026;43.780;25.948;2024-02-26T11:59:48;100413.44;;;21.51;53.78
45285;BME280;31026;43.780;25.948;2024-02-26T12:05:04;100402.97;;;21.82;53.13
45285;BME280;31026;43.780;25.948;2024-02-26T12:07:34;100401.66;;;21.94;53.06
45285;BME280;31026;43.780;25.948;2024-02-26T12:12:59;100415.28;;;21.84;53.35
45285;BME280;31026;43.780;25.948;2024-02-26T12:15:32;100400.75;;;21.77;53.51
45285;BME280;31026;43.780;25.948;2024-02-26T12:18:04;100390.97;;;21.68;53.53
45285;BME280;31026;43.780;25.948;2024-02-26T12:20:35;100397.69;;;21.64;53.99
45285;BME280;31026;43.780;25.948;2024-02-26T12:23:04;100397.34;;;21.59;53.81
45285;BME280;31026;43.780;25.948;2024-02-26T12:25:32;100392.94;;;21.58;53.83
45285;BME280;31026;43.780;25.948;2024-02-26T12:28:01;100392.00;;;21.67;53.67
45285;BME280;31026;43.780;25.948;2024-02-26T12:30:29;100388.81;;;21.80;53.64
45285;BME280;31026;43.780;25.948;2024-02-26T12:32:58;100392.03;;;21.83;53.36
45285;BME280;31026;43.780;25.948;2024-02-26T12:35:27;100387.63;;;21.74;53.41
45285;BME280;31026;43.780;25.948;2024-02-26T12:37:59;100389.84;;;21.79;53.62
45285;BME280;31026;43.780;25.948;2024-02-26T12:40:29;100375.50;;;21.70;53.68
45285;BME280;31026;43.780;25.948;2024-02-26T12:42:57;100377.84;;;21.65;54.02
45285;BME280;31026;43.780;25.948;2024-02-26T12:45:27;100376.97;;;21.64;53.92
45285;BME280;31026;43.780;25.948;2024-02-26T12:47:55;100373.31;;;21.65;54.01
45285;BME280;31026;43.780;25.948;2024-02-26T12:50:24;100363.72;;;21.63;54.23
45285;BME280;31026;43.780;25.948;2024-02-26T12:52:52;100372.47;;;21.65;53.98
45285;BME280;31026;43.780;25.948;2024-02-26T12:55:23;100360.41;;;21.77;53.71
45285;BME280;31026;43.780;25.948;2024-02-26T12:57:52;100390.03;;;21.85;53.54
45285;BME280;31026;43.780;25.948;2024-02-26T13:00:21;100376.28;;;21.97;53.55